Time;durP1;ratioP1;P1;durP2;ratioP2;P2;SDS_P1;SDS_P2;PMS_P1;PMS_P2;Temp;Humidity;BMP_temperature;BMP_pressure;BME280_temperature;BME280_humidity;BME280_pressure;Samples;Min_cycle;Max_cycle;Signal;HPM_P1;HPM_P2
2022/06/17 00:01:13;;;;;;;11.85;8.38;;;;;;;15.36;87.71;102409.81;5023678;28;20034;-72
2022/06/17 00:03:38;;;;;;;11.93;8.90;;;;;;;15.33;87.85;102414.34;5012908;28;20042;-72
2022/06/17 00:06:04;;;;;;;11.48;8.30;;;;;;;15.28;87.77;102405.66;5013363;28;20052;-73
2022/06/17 00:08:37;;;;;;;14.20;9.25;;;;;;;15.24;87.77;102409.38;5009367;28;20038;-72
2022/06/17 00:11:03;;;;;;;13.35;8.93;;;;;;;15.20;88.09;102410.44;5011419;28;20038;-72
2022/06/17 00:13:29;;;;;;;10.70;8.38;;;;;;;15.16;87.89;102409.66;5012677;28;20034;-72
2022/06/17 00:15:54;;;;;;;12.77;8.13;;;;;;;15.13;88.25;102408.91;5011748;28;20033;-72
2022/06/17 00:18:22;;;;;;;11.38;8.43;;;;;;;15.11;88.43;102408.13;5027617;28;20042;-71
2022/06/17 00:20:49;;;;;;;12.15;8.57;;;;;;;15.07;88.45;102408.25;4997570;28;20056;-72
2022/06/17 00:23:17;;;;;;;13.65;7.95;;;;;;;15.05;89.10;102412.75;5008344;28;20029;-72
2022/06/17 00:25:45;;;;;;;11.90;8.18;;;;;;;15.03;88.78;102409.28;5012701;28;20061;-72
2022/06/17 00:28:13;;;;;;;13.07;8.50;;;;;;;15.02;89.47;102404.91;5011926;28;20038;-72
2022/06/17 00:30:39;;;;;;;12.00;8.98;;;;;;;14.98;89.53;102402.41;5006997;28;20048;-72
2022/06/17 00:33:05;;;;;;;12.52;8.48;;;;;;;14.96;90.03;102402.47;5010646;28;20037;-72
2022/06/17 00:35:35;;;;;;;11.18;8.55;;;;;;;14.95;90.51;102400.72;5011035;28;20552;-71
2022/06/17 00:38:02;;;;;;;13.55;8.75;;;;;;;14.94;90.79;102399.00;5008698;28;20037;-71
2022/06/17 00:40:31;;;;;;;13.02;8.65;;;;;;;14.92;90.86;102400.84;5009288;28;20121;-72
2022/06/17 00:43:01;;;;;;;11.90;8.70;;;;;;;14.90;91.34;102398.25;5005653;28;20135;-73
2022/06/17 00:45:30;;;;;;;13.63;9.23;;;;;;;14.86;91.36;102401.97;5014033;28;20118;-71
2022/06/17 00:48:16;;;;;;;11.65;8.38;;;;;;;14.83;92.40;102395.88;5022892;28;20104;-71
2022/06/17 00:51:05;;;;;;;10.30;7.80;;;;;;;14.80;91.78;102400.41;5007238;28;20116;-71
2022/06/17 00:53:34;;;;;;;13.50;8.60;;;;;;;14.76;91.09;102398.78;5012295;28;20037;-72
2022/06/17 00:56:04;;;;;;;11.02;8.57;;;;;;;14.75;91.05;102394.38;5009676;28;20429;-73
2022/06/17 00:58:52;;;;;;;13.55;8.77;;;;;;;14.69;91.70;102405.25;5009913;28;20606;-72
2022/06/17 01:01:18;;;;;;;11.32;8.40;;;;;;;14.68;91.02;102395.50;5009400;28;20041;-72
2022/06/17 01:03:44;;;;;;;12.40;7.88;;;;;;;14.68;90.42;102400.84;5011372;28;20378;-72
2022/06/17 01:06:15;;;;;;;11.48;8.35;;;;;;;14.66;90.49;102394.72;5024155;28;20048;-72
2022/06/17 01:11:49;;;;;;;10.88;7.47;;;;;;;14.66;91.47;102387.56;5012944;28;20106;-72
2022/06/17 01:14:16;;;;;;;12.05;8.70;;;;;;;14.67;91.11;102393.78;5008999;28;20481;-72
2022/06/17 01:16:43;;;;;;;12.13;7.93;;;;;;;14.63;91.16;102386.81;5026090;28;20226;-72
2022/06/17 01:19:18;;;;;;;11.95;8.25;;;;;;;14.60;91.43;102379.78;4990931;28;20435;-72
2022/06/17 01:21:49;;;;;;;10.23;7.95;;;;;;;14.57;91.39;102374.59;5006701;28;20044;-71
2022/06/17 01:24:15;;;;;;;10.13;7.03;;;;;;;14.54;91.89;102377.38;4991339;28;20033;-72
2022/06/17 01:26:40;;;;;;;11.45;7.65;;;;;;;14.51;91.32;102369.50;5010442;28;20034;-72
2022/06/17 01:29:10;;;;;;;10.05;7.65;;;;;;;14.47;91.51;102374.06;5008481;28;20033;-72
2022/06/17 01:31:36;;;;;;;11.05;7.90;;;;;;;14.46;91.38;102377.69;5005817;28;20065;-71
2022/06/17 01:34:01;;;;;;;11.23;7.78;;;;;;;14.45;91.21;102383.06;5004296;28;20677;-71
2022/06/17 01:36:28;;;;;;;12.75;7.90;;;;;;;14.45;91.38;102383.06;5011213;28;20029;-71
2022/06/17 01:38:59;;;;;;;10.60;7.53;;;;;;;14.43;91.52;102380.44;5008526;28;20036;-71
2022/06/17 01:41:27;;;;;;;10.15;7.30;;;;;;;14.40;91.23;102389.41;5006005;28;20485;-71
2022/06/17 01:44:00;;;;;;;9.15;7.43;;;;;;;14.40;91.61;102391.22;5010923;28;20033;-71
2022/06/17 01:46:35;;;;;;;9.18;7.43;;;;;;;14.38;91.71;102391.28;5009873;28;20060;-71
2022/06/17 01:49:06;;;;;;;9.75;7.38;;;;;;;14.37;91.43;102392.19;5006365;28;20044;-72
2022/06/17 01:51:34;;;;;;;10.73;7.45;;;;;;;14.35;91.64;102393.19;5010470;28;20733;-72
2022/06/17 01:54:02;;;;;;;12.25;7.60;;;;;;;14.31;91.68;102397.75;4989779;28;20030;-72
2022/06/17 01:56:34;;;;;;;9.75;6.72;;;;;;;14.29;91.56;102386.28;5009813;28;20497;-72
2022/06/17 01:59:09;;;;;;;9.45;6.78;;;;;;;14.26;91.88;102389.94;5008969;28;20597;-72
2022/06/17 02:01:36;;;;;;;11.10;7.28;;;;;;;14.25;91.70;102395.31;5006969;28;20912;-72
2022/06/17 02:04:07;;;;;;;9.35;7.15;;;;;;;14.23;91.23;102392.69;5018022;28;20071;-72
2022/06/17 02:06:38;;;;;;;9.38;7.07;;;;;;;14.22;91.90;102392.78;5008566;28;20080;-72
2022/06/17 02:09:04;;;;;;;9.35;6.47;;;;;;;14.17;91.47;102389.41;5008479;28;20567;-71
2022/06/17 02:11:30;;;;;;;10.00;6.85;;;;;;;14.13;91.95;102381.50;5022807;28;20033;-71
2022/06/17 02:13:55;;;;;;;10.10;6.95;;;;;;;14.12;91.94;102373.59;5022481;28;20492;-71
2022/06/17 02:16:21;;;;;;;9.43;6.30;;;;;;;14.10;91.74;102370.09;5024430;28;20145;-71
2022/06/17 02:18:47;;;;;;;8.40;6.30;;;;;;;14.07;91.69;102370.22;5009662;28;20105;-72
2022/06/17 02:21:18;;;;;;;11.60;7.00;;;;;;;14.05;92.12;102374.75;5009724;28;20030;-71
2022/06/17 02:23:44;;;;;;;8.95;6.75;;;;;;;14.04;92.27;102368.53;5009558;28;20033;-71
2022/06/17 02:26:09;;;;;;;10.20;6.97;;;;;;;14.01;92.17;102358.00;5020266;28;20042;-71
2022/06/17 02:28:35;;;;;;;10.55;7.03;;;;;;;13.99;92.30;102360.72;5007813;28;20029;-72
2022/06/17 02:31:01;;;;;;;8.32;6.50;;;;;;;13.98;91.94;102352.78;5005494;28;20056;-71
2022/06/17 02:33:27;;;;;;;9.63;6.38;;;;;;;13.98;92.03;102353.66;5013076;28;20038;-71
2022/06/17 02:35:59;;;;;;;8.35;6.22;;;;;;;14.00;91.84;102358.91;4989289;28;20045;-71
2022/06/17 02:38:29;;;;;;;8.82;6.45;;;;;;;14.01;92.02;102373.09;5014195;28;20037;-71
2022/06/17 02:41:05;;;;;;;10.27;6.88;;;;;;;14.01;91.47;102371.31;5016618;28;20028;-71
2022/06/17 02:43:34;;;;;;;8.07;5.97;;;;;;;14.03;91.59;102371.25;5007402;28;20117;-72
2022/06/17 02:46:13;;;;;;;12.23;6.50;;;;;;;14.03;91.68;102366.78;5009556;28;20460;-72
2022/06/17 02:48:54;;;;;;;7.57;6.15;;;;;;;14.06;91.59;102360.50;5013084;28;20040;-72
2022/06/17 02:51:21;;;;;;;7.45;5.65;;;;;;;14.07;91.29;102368.44;5011527;28;20041;-72
2022/06/17 02:53:46;;;;;;;7.68;6.00;;;;;;;14.09;91.49;102368.34;5007222;28;20065;-72
2022/06/17 02:56:18;;;;;;;7.80;6.10;;;;;;;14.07;91.47;102373.75;5014601;28;20057;-72
2022/06/17 02:59:11;;;;;;;7.70;6.27;;;;;;;14.09;91.48;102368.34;4995074;28;20238;-72
2022/06/17 03:01:38;;;;;;;8.55;5.97;;;;;;;14.07;91.14;102368.44;5007704;28;20320;-72
2022/06/17 03:04:19;;;;;;;7.45;5.70;;;;;;;14.10;90.94;102359.44;5010412;28;20036;-72
2022/06/17 03:06:46;;;;;;;8.20;5.57;;;;;;;14.12;90.89;102352.28;5028714;28;20054;-72
2022/06/17 03:09:23;;;;;;;7.13;5.78;;;;;;;14.11;91.09;102356.72;5026162;28;20038;-72
2022/06/17 03:11:56;;;;;;;8.32;5.80;;;;;;;14.11;91.50;102353.22;5011837;28;20044;-72
2022/06/17 03:14:23;;;;;;;8.68;6.15;;;;;;;14.09;91.49;102353.25;5008101;28;20037;-72
2022/06/17 03:16:51;;;;;;;8.43;5.80;;;;;;;14.08;91.50;102348.88;5014842;28;20029;-72
2022/06/17 03:19:17;;;;;;;7.68;5.90;;;;;;;14.10;91.09;102351.44;5025395;28;20038;-72
2022/06/17 03:21:43;;;;;;;7.57;5.45;;;;;;;14.12;91.49;102360.28;5010489;28;20033;-72
2022/06/17 03:24:31;;;;;;;10.07;6.55;;;;;;;14.13;91.75;102356.69;5011610;28;20166;-72
2022/06/17 03:27:12;;;;;;;8.45;6.13;;;;;;;14.14;91.69;102353.09;5011399;28;20037;-72
2022/06/17 03:29:39;;;;;;;9.50;6.13;;;;;;;14.17;91.23;102344.13;5014999;28;20465;-72
2022/06/17 03:32:35;;;;;;;8.63;6.13;;;;;;;14.19;92.35;102356.47;5007984;28;20052;-72
2022/06/17 03:35:01;;;;;;;7.75;5.97;;;;;;;14.22;91.71;102367.00;5008816;28;20739;-72
2022/06/17 03:37:33;;;;;;;7.80;5.80;;;;;;;14.22;91.65;102360.81;5010990;28;20385;-72
2022/06/17 03:40:20;;;;;;;8.70;6.40;;;;;;;14.23;92.75;102358.06;5015313;28;20072;-72
2022/06/17 03:43:00;;;;;;;9.80;6.30;;;;;;;14.25;92.29;102355.34;5010816;28;20408;-72
2022/06/17 03:45:29;;;;;;;7.72;5.70;;;;;;;14.28;91.58;102362.38;5012057;28;20041;-72
2022/06/17 03:48:00;;;;;;;8.32;6.43;;;;;;;14.30;91.98;102358.72;5008316;28;20036;-73
2022/06/17 03:50:34;;;;;;;8.10;6.03;;;;;;;14.30;91.94;102353.41;5014897;28;20053;-72
2022/06/17 03:53:20;;;;;;;7.03;5.50;;;;;;;14.32;92.38;102353.34;4996630;28;21147;-72
2022/06/17 03:55:45;;;;;;;9.68;5.82;;;;;;;14.34;92.07;102356.81;5008844;28;20121;-72
2022/06/17 03:58:15;;;;;;;8.55;6.35;;;;;;;14.38;92.49;102355.75;4996719;28;20420;-72
2022/06/17 04:00:46;;;;;;;8.85;5.63;;;;;;;14.40;91.88;102364.56;5011142;28;20382;-72
2022/06/17 04:03:25;;;;;;;7.20;5.60;;;;;;;14.43;92.23;102364.44;5025838;28;20095;-72
2022/06/17 04:05:57;;;;;;;7.25;5.47;;;;;;;14.46;92.53;102367.00;5013669;28;20053;-72
2022/06/17 04:08:22;;;;;;;7.63;6.05;;;;;;;14.48;91.75;102367.81;5013141;28;21018;-72
2022/06/17 04:10:48;;;;;;;9.27;6.38;;;;;;;14.49;91.88;102372.22;5012622;28;20049;-72
2022/06/17 04:13:15;;;;;;;9.40;6.13;;;;;;;14.51;92.32;102377.50;5009094;28;21772;-72
2022/06/17 04:15:47;;;;;;;7.95;5.53;;;;;;;14.52;92.37;102377.44;5026100;28;20151;-72
2022/06/17 04:18:13;;;;;;;7.32;5.40;;;;;;;14.54;92.29;102390.69;5015571;28;20026;-72
2022/06/17 04:20:44;;;;;;;6.85;5.32;;;;;;;14.54;92.51;102374.69;5009521;28;20041;-72
2022/06/17 04:23:13;;;;;;;7.55;5.85;;;;;;;14.57;92.12;102387.03;5007322;28;20499;-72
2022/06/17 04:25:43;;;;;;;8.18;5.53;;;;;;;14.59;92.28;102371.88;5023911;28;20488;-72
2022/06/17 04:28:14;;;;;;;7.20;5.70;;;;;;;14.60;92.79;102378.94;5010731;28;20033;-72
2022/06/17 04:30:43;;;;;;;8.55;5.55;;;;;;;14.61;92.59;102378.00;5015561;28;20033;-72
2022/06/17 04:33:21;;;;;;;7.72;5.72;;;;;;;14.62;93.22;102367.31;5007806;28;20507;-72
2022/06/17 04:35:49;;;;;;;8.38;5.40;;;;;;;14.64;93.20;102364.56;5007206;28;20037;-72
2022/06/17 04:38:14;;;;;;;7.15;5.47;;;;;;;14.66;93.49;102363.56;5022632;28;20041;-72
2022/06/17 04:40:49;;;;;;;7.20;6.10;;;;;;;14.69;93.53;102359.94;5011696;28;20523;-72
2022/06/17 04:43:38;;;;;;;7.88;5.82;;;;;;;14.73;94.24;102355.34;5025423;28;20103;-72
2022/06/17 04:46:18;;;;;;;9.65;6.43;;;;;;;14.76;94.52;102360.59;5027107;28;20044;-72
2022/06/17 04:48:44;;;;;;;8.75;5.97;;;;;;;14.78;93.42;102358.75;4997445;28;20041;-72
2022/06/17 04:51:10;;;;;;;7.97;6.47;;;;;;;14.80;93.99;102355.09;5009907;28;20060;-72
2022/06/17 04:53:38;;;;;;;7.88;6.50;;;;;;;14.83;93.95;102356.75;5025237;28;20502;-72
2022/06/17 04:56:07;;;;;;;10.02;6.65;;;;;;;14.88;93.71;102353.91;5025158;28;20044;-71
2022/06/17 04:58:32;;;;;;;9.98;6.32;;;;;;;14.92;93.91;102355.50;5007126;28;20167;-71
2022/06/17 05:00:58;;;;;;;9.70;6.18;;;;;;;14.95;93.93;102350.06;5010837;28;20025;-71
2022/06/17 05:03:28;;;;;;;8.85;6.72;;;;;;;14.99;93.48;102351.66;5006920;28;20033;-71
2022/06/17 05:05:54;;;;;;;11.32;7.38;;;;;;;15.03;93.39;102353.28;5009543;28;20057;-72
2022/06/17 05:08:28;;;;;;;8.38;6.35;;;;;;;15.06;93.86;102358.50;4993365;28;21761;-72
2022/06/17 05:11:03;;;;;;;10.00;6.60;;;;;;;15.10;94.39;102353.03;5008539;28;20082;-72
2022/06/17 05:13:35;;;;;;;11.07;6.90;;;;;;;15.13;93.98;102348.44;5008605;28;20385;-73
2022/06/17 05:16:01;;;;;;;9.80;6.80;;;;;;;15.18;94.42;102342.91;5012146;28;20076;-72
2022/06/17 05:18:26;;;;;;;9.75;6.68;;;;;;;15.23;94.23;102346.28;5009212;28;20042;-72
2022/06/17 05:20:52;;;;;;;8.98;7.13;;;;;;;15.28;95.32;102349.63;5010106;28;20037;-73
2022/06/17 05:23:18;;;;;;;9.77;7.10;;;;;;;15.33;94.71;102344.97;5025331;28;20029;-73
2022/06/17 05:25:46;;;;;;;10.95;7.10;;;;;;;15.42;94.76;102353.53;5008575;28;20488;-73
2022/06/17 05:28:15;;;;;;;9.23;6.80;;;;;;;15.48;94.75;102348.78;5009945;28;20033;-73
2022/06/17 05:30:44;;;;;;;8.43;7.05;;;;;;;15.56;94.34;102345.78;5022933;28;20049;-73
2022/06/17 05:33:14;;;;;;;10.43;7.10;;;;;;;15.65;94.45;102347.19;4991723;28;20087;-72
2022/06/17 05:35:40;;;;;;;9.18;6.80;;;;;;;15.72;93.69;102345.13;4996540;28;20045;-71
2022/06/17 05:38:06;;;;;;;11.88;7.68;;;;;;;15.78;93.60;102338.63;5011643;28;20033;-71
2022/06/17 05:40:33;;;;;;;10.05;7.00;;;;;;;15.84;93.18;102327.69;5011792;28;20084;-71
2022/06/17 05:42:58;;;;;;;9.15;6.95;;;;;;;15.89;93.20;102328.34;5011236;28;20091;-71
2022/06/17 05:45:26;;;;;;;10.02;7.72;;;;;;;15.94;92.93;102330.84;5007562;28;20704;-71
2022/06/17 05:47:54;;;;;;;9.13;7.28;;;;;;;15.98;92.35;102321.78;5010908;28;20038;-72
2022/06/17 05:50:22;;;;;;;9.75;6.88;;;;;;;16.02;91.96;102321.56;4993544;28;20025;-72
2022/06/17 05:53:05;;;;;;;10.10;6.75;;;;;;;16.10;91.94;102317.66;5026090;28;20037;-72
2022/06/17 05:55:32;;;;;;;10.02;6.80;;;;;;;16.16;91.56;102317.41;5011765;28;20039;-71
2022/06/17 05:57:58;;;;;;;8.38;7.00;;;;;;;16.22;91.54;102327.81;5011676;28;20045;-72
2022/06/17 06:00:25;;;;;;;9.50;7.03;;;;;;;16.30;91.23;102324.78;4993884;28;20044;-71
2022/06/17 06:02:55;;;;;;;10.38;7.57;;;;;;;16.37;91.18;102320.88;5007988;28;20664;-71
2022/06/17 06:05:22;;;;;;;7.75;6.82;;;;;;;16.46;91.02;102327.63;5007494;28;20037;-72
2022/06/17 06:07:48;;;;;;;11.27;7.25;;;;;;;16.53;90.54;102325.50;5027519;28;20049;-72
2022/06/17 06:10:15;;;;;;;10.88;7.78;;;;;;;16.58;90.43;102318.16;5016347;28;20060;-72
2022/06/17 06:15:41;;;;;;;9.43;6.38;;;;;;;16.70;90.19;102317.56;5014937;28;20034;-72
2022/06/17 06:18:12;;;;;;;8.27;6.88;;;;;;;16.76;89.76;102312.84;5029340;28;20036;-72
2022/06/17 06:20:38;;;;;;;11.38;7.53;;;;;;;16.79;89.46;102310.03;5014225;28;20109;-72
2022/06/17 06:23:04;;;;;;;10.65;7.53;;;;;;;16.84;89.29;102318.69;5015423;28;21690;-72
2022/06/17 06:25:30;;;;;;;9.38;7.15;;;;;;;16.89;89.15;102310.44;5014625;28;20045;-72
2022/06/17 06:27:55;;;;;;;11.30;7.20;;;;;;;16.94;89.41;102316.44;5013891;28;20047;-72
2022/06/17 06:30:24;;;;;;;10.27;6.93;;;;;;;16.98;88.97;102315.34;5012345;28;20033;-72
2022/06/17 06:33:09;;;;;;;8.05;6.55;;;;;;;17.04;89.05;102312.38;5012052;28;21846;-72
2022/06/17 06:35:38;;;;;;;8.30;6.50;;;;;;;17.09;88.89;102312.16;5014714;28;20030;-72
2022/06/17 06:38:04;;;;;;;10.20;7.28;;;;;;;17.13;88.69;102297.69;5012035;28;20205;-78
2022/06/17 06:40:30;;;;;;;9.23;6.93;;;;;;;17.20;88.53;102296.44;5015665;28;20025;-77
2022/06/17 06:42:56;;;;;;;7.88;6.05;;;;;;;17.26;88.44;102291.72;5010976;28;20544;-77
2022/06/17 06:45:25;;;;;;;7.97;6.57;;;;;;;17.33;88.16;102287.78;5011135;28;20546;-77
2022/06/17 06:47:51;;;;;;;10.10;7.13;;;;;;;17.38;87.80;102293.78;4980448;28;20044;-78
2022/06/17 06:50:21;;;;;;;8.18;6.68;;;;;;;17.46;87.64;102294.25;5013701;28;20034;-78
2022/06/17 06:52:46;;;;;;;8.25;6.75;;;;;;;17.54;87.30;102295.66;5015239;28;20033;-78
2022/06/17 06:55:13;;;;;;;7.95;6.20;;;;;;;17.61;87.00;102297.06;5018375;28;20095;-77
2022/06/17 06:58:12;;;;;;;6.57;5.82;;;;;;;17.72;86.41;102300.03;5019014;28;20041;-77
2022/06/17 07:00:40;;;;;;;9.13;6.00;;;;;;;17.83;86.26;102298.59;5015211;28;20038;-76
2022/06/17 07:03:06;;;;;;;8.88;6.60;;;;;;;17.92;85.62;102303.44;5027657;28;20125;-76
2022/06/17 07:05:34;;;;;;;12.40;5.90;;;;;;;18.03;85.37;102305.56;5029709;28;20068;-76
2022/06/17 07:08:00;;;;;;;7.53;6.25;;;;;;;18.11;85.11;102307.84;5010588;28;20088;-75
2022/06/17 07:10:28;;;;;;;7.93;6.00;;;;;;;18.20;84.71;102310.03;5012151;28;20040;-75
2022/06/17 07:12:54;;;;;;;8.05;5.80;;;;;;;18.27;84.28;102308.75;5024513;28;20042;-76
2022/06/17 07:15:20;;;;;;;9.63;6.00;;;;;;;18.35;84.03;102308.31;5011793;28;20038;-77
2022/06/17 07:18:17;;;;;;;8.80;6.18;;;;;;;18.43;83.63;102311.44;5010186;28;20063;-77
2022/06/17 07:20:45;;;;;;;10.05;6.18;;;;;;;18.49;83.58;102310.25;4999243;28;20192;-77
2022/06/17 07:23:14;;;;;;;8.77;5.68;;;;;;;18.54;83.01;102310.84;5011661;28;20037;-77
2022/06/17 07:25:40;;;;;;;5.60;5.00;;;;;;;18.61;82.44;102303.31;4993797;28;20036;-77
2022/06/17 07:28:06;;;;;;;7.93;5.95;;;;;;;18.68;82.54;102304.69;5012528;28;20095;-77
2022/06/17 07:30:33;;;;;;;7.10;5.95;;;;;;;18.76;82.26;102303.38;5016271;28;20129;-77
2022/06/17 07:32:59;;;;;;;6.93;5.70;;;;;;;18.85;81.90;102313.59;5016412;28;20037;-77
2022/06/17 07:35:26;;;;;;;7.93;5.40;;;;;;;18.90;81.29;102310.66;5014289;28;20038;-77
2022/06/17 07:40:36;;;;;;;6.70;5.25;;;;;;;19.05;80.45;102312.47;5011209;28;20029;-77
2022/06/17 07:43:02;;;;;;;9.23;5.45;;;;;;;19.10;80.08;102314.88;5012414;28;20609;-77
2022/06/17 07:45:30;;;;;;;6.32;4.90;;;;;;;19.16;79.84;102319.88;5012036;28;20500;-77
2022/06/17 07:47:56;;;;;;;6.13;4.80;;;;;;;19.21;79.77;102319.59;4979362;28;20095;-77
2022/06/17 07:50:27;;;;;;;7.18;5.22;;;;;;;19.29;79.44;102317.34;4977715;28;20030;-77
2022/06/17 07:52:52;;;;;;;6.22;4.90;;;;;;;19.34;78.97;102317.94;5014452;28;20037;-78
2022/06/17 07:55:18;;;;;;;6.45;4.50;;;;;;;19.37;78.50;102306.16;5014558;28;20428;-77
2022/06/17 07:57:45;;;;;;;6.43;5.00;;;;;;;19.44;78.55;102306.66;5011005;28;20991;-77
2022/06/17 08:00:20;;;;;;;5.78;4.70;;;;;;;19.62;78.26;102310.88;5027094;28;20076;-77
2022/06/17 08:02:46;;;;;;;6.70;4.75;;;;;;;19.91;78.12;102302.00;5014487;28;20087;-78
2022/06/17 08:05:12;;;;;;;6.18;4.57;;;;;;;20.24;77.45;102294.63;5000081;28;20535;-78
2022/06/17 08:07:38;;;;;;;7.30;4.78;;;;;;;20.66;76.84;102290.13;4991565;28;1109823;-78
2022/06/17 08:10:04;;;;;;;5.35;4.20;;;;;;;21.04;75.53;102291.25;5010844;28;20049;-78
2022/06/17 08:12:30;;;;;;;5.68;4.10;;;;;;;21.27;74.86;102289.69;5016329;28;20084;-78
2022/06/17 08:14:56;;;;;;;7.55;4.53;;;;;;;21.38;73.45;102290.78;5026834;28;20391;-78
2022/06/17 08:17:22;;;;;;;6.90;4.28;;;;;;;21.38;72.44;102282.69;5028066;28;20172;-80
2022/06/17 08:19:50;;;;;;;8.43;4.60;;;;;;;21.33;72.39;102284.81;5011428;28;20084;-78
2022/06/17 08:22:17;;;;;;;5.00;4.10;;;;;;;21.30;71.89;102284.06;5014630;28;20042;-78
2022/06/17 08:24:42;;;;;;;6.30;4.78;;;;;;;21.30;72.20;102299.41;5013014;28;20121;-78
2022/06/17 08:27:08;;;;;;;5.05;3.85;;;;;;;21.34;72.27;102300.03;5010995;28;20030;-78
2022/06/17 08:29:33;;;;;;;6.85;4.28;;;;;;;21.36;71.99;102303.50;5031472;28;20477;-79
2022/06/17 08:32:45;;;;;;;8.10;4.55;;;;;;;21.38;71.64;102313.19;4997244;28;20050;-79
2022/06/17 08:34:45;;;;;;;4.85;3.95;;;;;;;21.43;71.81;102315.56;5014496;28;20539;-80
2022/06/17 08:37:15;;;;;;;5.80;3.70;;;;;;;21.51;71.30;102318.59;5032964;28;20040;-79
2022/06/17 08:39:42;;;;;;;5.97;4.28;;;;;;;21.58;71.92;102322.56;5012280;28;20034;-80
2022/06/17 08:42:51;;;;;;;5.20;4.05;;;;;;;21.65;70.11;102323.03;5014959;28;20148;-79
2022/06/17 08:45:20;;;;;;;4.93;4.18;;;;;;;21.67;70.57;102317.50;5017599;28;20177;-79
2022/06/17 08:48:14;;;;;;;5.82;3.83;;;;;;;21.69;70.74;102323.72;5014964;28;20033;-79
2022/06/17 08:50:51;;;;;;;5.20;3.80;;;;;;;21.78;70.37;102319.50;5016378;28;20056;-79
2022/06/17 08:53:37;;;;;;;6.93;3.35;;;;;;;21.82;68.30;102311.09;5019190;28;20041;-80
2022/06/17 08:56:39;;;;;;;4.50;3.70;;;;;;;21.88;68.70;102308.91;5012310;28;20507;-79
2022/06/17 08:59:04;;;;;;;5.85;3.70;;;;;;;21.93;69.89;102296.84;5008706;28;20041;-79
2022/06/17 09:01:51;;;;;;;6.45;3.03;;;;;;;21.96;67.66;102291.22;5012461;28;20034;-79
2022/06/17 09:04:54;;;;;;;3.60;3.03;;;;;;;22.01;68.53;102290.06;5010461;28;20036;-79
2022/06/17 09:07:38;;;;;;;5.22;3.30;;;;;;;22.07;68.51;102276.97;5014249;28;20045;-81
2022/06/17 09:10:08;;;;;;;4.03;3.08;;;;;;;22.14;69.09;102282.78;5028939;28;20040;-80
2022/06/17 09:12:37;;;;;;;3.72;3.30;;;;;;;22.19;69.57;102279.75;5009849;28;20036;-81
2022/06/17 09:15:43;;;;;;;4.30;3.55;;;;;;;22.19;66.93;102274.38;5029188;28;20029;-79
2022/06/17 09:18:24;;;;;;;4.22;3.40;;;;;;;22.23;67.97;102278.56;5007670;28;20046;-79
2022/06/17 09:20:53;;;;;;;3.50;3.20;;;;;;;22.29;68.57;102275.44;5014176;28;20032;-79
2022/06/17 09:23:24;;;;;;;5.03;3.33;;;;;;;22.48;69.09;102282.16;5018229;28;20034;-80
2022/06/17 09:25:50;;;;;;;3.38;3.08;;;;;;;22.67;68.86;102276.28;5026832;28;20036;-78
2022/06/17 09:28:22;;;;;;;4.70;3.47;;;;;;;22.82;68.48;102274.25;5029392;28;20095;-75
2022/06/17 09:31:01;;;;;;;3.92;3.35;;;;;;;22.91;67.31;102268.19;5027581;28;20064;-73
2022/06/17 09:33:26;;;;;;;3.67;2.55;;;;;;;22.99;67.49;102270.28;5009593;28;20037;-75
2022/06/17 09:36:21;;;;;;;6.80;3.30;;;;;;;23.00;65.45;102271.16;5014622;28;20033;-77
2022/06/17 09:38:49;;;;;;;3.05;2.65;;;;;;;23.01;66.23;102271.03;5012393;28;20040;-76
2022/06/17 09:41:36;;;;;;;3.15;2.67;;;;;;;23.08;65.44;102275.97;5028149;28;21113;-77
2022/06/17 09:44:07;;;;;;;4.32;2.88;;;;;;;23.23;64.38;102273.91;5014141;28;20045;-77
2022/06/17 09:46:47;;;;;;;7.55;2.70;;;;;;;23.46;61.04;102286.53;5014452;28;21031;-77
2022/06/17 09:49:15;;;;;;;4.22;2.38;;;;;;;23.78;63.36;102281.41;5017044;28;20052;-78
2022/06/17 09:51:43;;;;;;;3.38;2.20;;;;;;;24.01;62.23;102280.44;5020969;28;20041;-77
2022/06/17 09:54:20;;;;;;;2.65;2.22;;;;;;;24.23;60.47;102278.72;5010496;28;20034;-78
2022/06/17 09:56:56;;;;;;;4.22;2.50;;;;;;;24.36;59.72;102265.03;5035654;28;20041;-77
2022/06/17 10:00:01;;;;;;;2.50;2.25;;;;;;;24.62;58.90;102261.16;5013790;28;20110;-84
2022/06/17 10:02:42;;;;;;;4.13;3.00;;;;;;;24.84;57.05;102264.78;4973812;28;20041;-82
2022/06/17 10:05:21;;;;;;;3.30;2.60;;;;;;;24.88;55.36;102264.41;4991385;28;20128;-82
2022/06/17 10:08:16;;;;;;;3.75;2.42;;;;;;;24.82;50.90;102259.50;4975104;28;20056;-79
2022/06/17 10:10:53;;;;;;;3.17;2.88;;;;;;;24.81;52.14;102258.66;4991053;28;20501;-79
2022/06/17 10:13:42;;;;;;;2.90;2.60;;;;;;;24.84;54.94;102259.38;5007536;28;20062;-86
2022/06/17 10:19:47;;;;;;;4.80;2.50;;;;;;;24.93;54.10;102264.00;4992376;28;20678;-76
2022/06/17 10:22:51;;;;;;;3.97;2.88;;;;;;;25.00;50.75;102258.94;4977862;28;20595;-76
2022/06/17 10:25:25;;;;;;;2.80;2.45;;;;;;;25.04;55.96;102255.81;4995045;28;20572;-76
2022/06/17 10:28:06;;;;;;;4.10;2.55;;;;;;;25.11;55.51;102241.75;4989906;28;20681;-74
2022/06/17 10:30:37;;;;;;;3.00;2.70;;;;;;;25.11;54.65;102249.88;4995678;28;21072;-74
2022/06/17 10:33:03;;;;;;;4.32;2.80;;;;;;;25.15;55.09;102248.59;4993892;28;20046;-74
2022/06/17 10:35:33;;;;;;;3.90;2.60;;;;;;;25.20;54.81;102252.66;4980841;28;20076;-75
2022/06/17 10:38:02;;;;;;;2.90;2.60;;;;;;;25.33;55.42;102244.31;5021332;28;20037;-74
2022/06/17 10:40:30;;;;;;;2.95;2.33;;;;;;;25.48;55.18;102250.25;5024338;28;20034;-77
2022/06/17 10:43:02;;;;;;;4.40;3.35;;;;;;;25.62;52.42;102242.78;5015483;28;20037;-73
2022/06/17 10:45:28;;;;;;;;;;;;;;;25.76;52.82;102233.41;5011559;28;20037;-75
2022/06/17 10:48:12;;;;;;;3.10;2.80;;;;;;;25.81;49.92;102235.72;5012169;28;19982;-76
2022/06/17 10:50:37;;;;;;;3.15;2.63;;;;;;;25.84;53.66;102232.72;5015587;28;20044;-76
2022/06/17 10:53:14;;;;;;;4.07;3.05;;;;;;;25.77;51.57;102236.00;5014628;28;20038;-74
2022/06/17 10:55:53;;;;;;;3.13;2.40;;;;;;;25.85;52.16;102226.31;5014196;28;20052;-74
2022/06/17 10:58:40;;;;;;;4.30;2.28;;;;;;;25.94;50.34;102213.78;5017139;28;20037;-75
2022/06/17 11:01:10;;;;;;;4.07;2.20;;;;;;;26.02;51.38;102206.66;5015136;28;20064;-75
2022/06/17 11:04:10;;;;;;;3.03;2.33;;;;;;;26.22;51.50;102208.59;5009312;28;20040;-75
2022/06/17 11:06:45;;;;;;;3.65;2.25;;;;;;;26.30;52.03;102209.59;4999984;28;20049;-74
2022/06/17 11:09:24;;;;;;;6.57;2.58;;;;;;;26.46;52.51;102204.63;5023752;28;20038;-74
2022/06/17 11:12:04;;;;;;;4.95;2.70;;;;;;;26.61;52.98;102199.59;5012153;28;20037;-74
2022/06/17 11:14:48;;;;;;;5.30;2.25;;;;;;;26.63;52.58;102214.75;5031453;28;20109;-73
2022/06/17 11:17:29;;;;;;;5.05;2.58;;;;;;;26.63;50.68;102209.31;4995696;28;20034;-73
2022/06/17 11:19:57;;;;;;;2.17;1.98;;;;;;;26.57;52.12;102204.47;5012596;28;20455;-73
2022/06/17 11:22:26;;;;;;;3.97;2.17;;;;;;;26.52;50.28;102206.78;5024928;28;20037;-73
2022/06/17 11:24:55;;;;;;;2.28;1.98;;;;;;;26.56;51.52;102200.03;5014131;28;20639;-72
2022/06/17 11:27:27;;;;;;;3.88;2.08;;;;;;;26.65;50.52;102192.88;5021062;28;20033;-73
2022/06/17 11:29:54;;;;;;;3.00;2.10;;;;;;;26.70;51.28;102198.75;5022458;28;20037;-75
2022/06/17 11:32:19;;;;;;;3.63;2.35;;;;;;;26.75;47.71;102206.47;5000505;28;20503;-73
2022/06/17 11:34:55;;;;;;;3.50;2.50;;;;;;;26.71;48.33;102201.31;5015334;28;20029;-73
2022/06/17 11:37:32;;;;;;;2.83;2.17;;;;;;;26.73;48.65;102192.19;5018897;28;20082;-73
2022/06/17 11:40:09;;;;;;;2.22;1.73;;;;;;;26.80;48.54;102185.16;5013089;28;20033;-74
2022/06/17 11:42:52;;;;;;;2.50;2.08;;;;;;;26.91;47.58;102187.72;5012164;28;20032;-75
2022/06/17 11:45:25;;;;;;;2.85;1.98;;;;;;;27.03;47.81;102182.13;5013379;28;20032;-75
2022/06/17 11:47:55;;;;;;;3.85;2.08;;;;;;;27.12;49.12;102173.09;5013472;28;20049;-76
2022/06/17 11:51:04;;;;;;;3.22;2.00;;;;;;;27.17;45.78;102167.25;5028331;28;20030;-76
2022/06/17 11:53:30;;;;;;;2.83;2.15;;;;;;;27.28;47.67;102158.03;5014911;28;20131;-76
2022/06/17 11:55:56;;;;;;;3.20;2.17;;;;;;;27.34;44.79;102152.00;4998026;28;21628;-75
2022/06/17 11:58:21;;;;;;;2.10;1.90;;;;;;;27.32;46.06;102151.28;5021377;28;20037;-78